Decoded Metar for LFCK (CASTRES in FRANCE) (IATA:DCM) | Meteo·Mobile Aviation Weather
aviador You're here:

LFCK Decoded Metar

CASTRES in FRANCE
Report Time2019-07-16 09:30:00
UTC Time2019-07-16 10:02:30
Flight Rules vfr VFR
Wind290° at 05 kt
W.Decomp.*RWY 32: 4.3 kt HW 2.5 kt LCW
Visibility9999 m
Phenomena:N/A
Clouds:N/A
Expected CloudBase > 5,200 ft AGL from Temp-Dew spread
CeilingNone
Temp24°C
Dew Point11°C (44% RH)
AAT22.5°C
QNH1018 hPa
Raw Report
METAR LFCK 160930Z AUTO 29005KT 240V350 CAVOK 24/11 Q1018 NOSIG=

Extra information for LFCK:More info

Metar Taf Metar & Taf Last 4 Metars F.Rules Stats Wind Profile Meteogram Temp Stats Airport Information Weather charts Add Link Nearby VenuesMetar ALERT Operation Metar Decoded Social comments